Time;durP1;ratioP1;P1;durP2;ratioP2;P2;SDS_P1;SDS_P2;PMS_P1;PMS_P2;Temp;Humidity;BMP_temperature;BMP_pressure;BME280_temperature;BME280_humidity;BME280_pressure;Samples;Min_cycle;Max_cycle;Signal;HPM_P1;HPM_P2
2021/12/19 00:01:31;;;;;;;;;;;7.30;99.90;;;;;;5086988;28;19955;-86
2021/12/19 00:09:06;;;;;;;;;;;7.30;99.90;;;;;;5072879;28;19920;-86
2021/12/19 00:11:33;;;;;;;;;;;7.30;99.90;;;;;;5092746;28;19946;-88
2021/12/19 00:13:59;;;;;;;;;;;7.30;99.90;;;;;;5088958;28;19923;-86
2021/12/19 00:16:25;;;;;;;;;;;7.40;99.90;;;;;;5072629;28;19915;-87
2021/12/19 00:18:52;;;;;;;;;;;7.40;99.90;;;;;;5077408;28;20361;-86
2021/12/19 00:21:19;;;;;;;;;;;7.30;99.90;;;;;;5069919;28;19916;-85
2021/12/19 00:23:45;;;;;;;;;;;7.40;99.90;;;;;;5074193;28;19923;-86
2021/12/19 00:26:12;;;;;;;;;;;7.40;99.90;;;;;;5077069;28;19955;-85
2021/12/19 00:28:38;;;;;;;;;;;7.40;99.90;;;;;;5063509;28;19920;-86
2021/12/19 00:31:05;;;;;;;;;;;7.40;99.90;;;;;;5084186;28;19931;-85
2021/12/19 00:33:30;;;;;;;;;;;7.40;99.90;;;;;;5065169;28;19916;-86
2021/12/19 00:35:57;;;;;;;;;;;7.40;99.90;;;;;;5092063;28;19969;-86
2021/12/19 00:38:23;;;;;;;;;;;7.40;99.90;;;;;;5098460;28;20318;-85
2021/12/19 00:40:49;;;;;;;;;;;7.40;99.90;;;;;;5084992;28;19942;-85
2021/12/19 00:46:05;;;;;;;;;;;7.40;99.90;;;;;;5069414;28;19916;-85
2021/12/19 00:48:31;;;;;;;;;;;7.40;99.90;;;;;;5080678;28;19916;-87
2021/12/19 00:50:57;;;;;;;;;;;7.40;99.90;;;;;;5097090;28;20003;-85
2021/12/19 00:53:22;;;;;;;;;;;7.40;99.90;;;;;;5069616;28;19917;-82
2021/12/19 00:55:48;;;;;;;;;;;7.30;99.90;;;;;;5081810;28;19916;-85
2021/12/19 00:58:14;;;;;;;;;;;7.30;99.90;;;;;;5088892;28;20002;-83
2021/12/19 01:00:39;;;;;;;;;;;7.20;99.90;;;;;;5088202;28;19920;-86
2021/12/19 01:03:06;;;;;;;;;;;7.20;99.90;;;;;;5074721;28;19916;-86
2021/12/19 01:05:34;;;;;;;;;;;7.20;99.90;;;;;;5059203;28;19916;-86
2021/12/19 01:08:00;;;;;;;;;;;7.10;99.90;;;;;;5089034;28;19923;-86
2021/12/19 01:10:25;;;;;;;;;;;7.10;99.90;;;;;;5077837;28;19916;-85
2021/12/19 01:12:51;;;;;;;;;;;7.10;99.90;;;;;;5085296;28;19958;-84
2021/12/19 01:15:17;;;;;;;;;;;7.20;99.90;;;;;;5088962;28;19923;-85
2021/12/19 01:17:43;;;;;;;;;;;7.10;99.90;;;;;;5088207;28;19920;-89
2021/12/19 01:20:22;;;;;;;;;;;7.10;99.90;;;;;;5081654;28;19922;-82
2021/12/19 01:22:48;;;;;;;;;;;7.00;99.90;;;;;;5098086;28;19923;-88
2021/12/19 01:25:14;;;;;;;;;;;7.00;99.90;;;;;;5101338;28;19916;-86
2021/12/19 01:27:40;;;;;;;;;;;7.10;99.90;;;;;;5103388;28;20042;-85
2021/12/19 01:30:06;;;;;;;;;;;7.40;99.90;;;;;;5084252;28;19960;-84
2021/12/19 01:32:32;;;;;;;;;;;7.00;99.90;;;;;;5093891;28;19931;-86
2021/12/19 01:34:58;;;;;;;;;;;7.00;99.90;;;;;;5106293;28;19916;-88
2021/12/19 01:37:23;;;;;;;;;;;6.90;99.90;;;;;;5095671;28;19920;-86
2021/12/19 01:39:49;;;;;;;;;;;6.90;99.90;;;;;;5102852;28;19916;-87
2021/12/19 01:42:17;;;;;;;;;;;7.20;99.90;;;;;;5108232;28;19904;-86
2021/12/19 01:44:44;;;;;;;;;;;6.90;99.90;;;;;;5103940;28;19924;-84
2021/12/19 01:47:10;;;;;;;;;;;6.90;99.90;;;;;;5080902;28;19982;-82
2021/12/19 01:49:35;;;;;;;;;;;6.90;99.90;;;;;;5071706;28;19916;-87
2021/12/19 01:52:01;;;;;;;;;;;7.00;99.90;;;;;;5101161;28;19981;-85
2021/12/19 01:54:27;;;;;;;;;;;6.80;99.90;;;;;;5081668;28;19916;-83
2021/12/19 01:56:53;;;;;;;;;;;6.90;99.90;;;;;;5104251;28;19982;-86
2021/12/19 01:59:18;;;;;;;;;;;6.80;99.90;;;;;;5109623;28;19985;-86
2021/12/19 02:01:45;;;;;;;;;;;7.00;99.90;;;;;;5113082;28;19930;-89
2021/12/19 02:04:12;;;;;;;;;;;6.90;99.90;;;;;;5097027;28;19923;-84
2021/12/19 02:06:37;;;;;;;;;;;6.80;99.90;;;;;;5087552;28;19915;-87
2021/12/19 02:09:07;;;;;;;;;;;6.80;99.90;;;;;;5082073;28;19970;-86
2021/12/19 02:11:38;;;;;;;;;;;6.80;99.90;;;;;;5077788;28;19921;-87
2021/12/19 02:14:06;;;;;;;;;;;6.80;99.90;;;;;;5072544;28;19930;-87
2021/12/19 02:16:32;;;;;;;;;;;6.80;99.90;;;;;;5087875;28;19919;-86
2021/12/19 02:18:57;;;;;;;;;;;6.80;99.90;;;;;;5092307;28;19976;-85
2021/12/19 02:21:23;;;;;;;;;;;6.80;99.90;;;;;;5092416;28;19931;-86
2021/12/19 02:23:49;;;;;;;;;;;6.80;99.90;;;;;;5075518;28;19923;-85
2021/12/19 02:26:15;;;;;;;;;;;6.80;99.90;;;;;;5091846;28;20007;-86
2021/12/19 02:28:41;;;;;;;;;;;6.80;99.90;;;;;;5084529;28;20369;-87
2021/12/19 02:31:07;;;;;;;;;;;6.70;99.90;;;;;;5055596;28;20392;-87
2021/12/19 02:33:36;;;;;;;;;;;6.80;99.90;;;;;;5091241;28;19923;-87
2021/12/19 02:36:28;;;;;;;;;;;6.70;99.90;;;;;;5106663;28;19949;-86
2021/12/19 02:49:47;;;;;;;;;;;6.60;99.90;;;;;;5073169;28;19966;-88
2021/12/19 02:52:14;;;;;;;;;;;6.60;99.90;;;;;;5072587;28;20010;-87
2021/12/19 02:54:40;;;;;;;;;;;6.60;99.90;;;;;;5072139;28;20007;-85
2021/12/19 02:57:06;;;;;;;;;;;6.60;99.90;;;;;;5072173;28;20017;-85
2021/12/19 02:59:32;;;;;;;;;;;6.60;99.90;;;;;;5072816;28;19975;-85
2021/12/19 03:01:57;;;;;;;;;;;6.90;99.90;;;;;;5075871;28;19924;-86
2021/12/19 03:04:23;;;;;;;;;;;6.60;99.90;;;;;;5110270;28;19920;-86
2021/12/19 03:06:49;;;;;;;;;;;6.60;99.90;;;;;;5074928;28;19974;-88
2021/12/19 03:09:27;;;;;;;;;;;6.60;99.90;;;;;;5057348;28;19981;-88
2021/12/19 03:20:19;;;;;;;;;;;6.50;99.90;;;;;;5087895;28;19920;-82
2021/12/19 03:22:45;;;;;;;;;;;6.50;99.90;;;;;;5087264;28;19917;-87
2021/12/19 03:25:10;;;;;;;;;;;6.50;99.90;;;;;;5080249;28;19919;-85
2021/12/19 03:27:36;;;;;;;;;;;6.50;99.90;;;;;;5093342;28;19939;-89
2021/12/19 03:30:04;;;;;;;;;;;6.50;99.90;;;;;;5090143;28;20438;-87
2021/12/19 03:32:29;;;;;;;;;;;6.50;99.90;;;;;;5092276;28;19920;-86
2021/12/19 03:34:56;;;;;;;;;;;6.50;99.90;;;;;;5086932;28;19939;-83
2021/12/19 03:37:24;;;;;;;;;;;6.50;99.90;;;;;;5079140;28;19923;-84
2021/12/19 03:40:07;;;;;;;;;;;6.60;99.90;;;;;;5110553;28;20293;-85
2021/12/19 03:42:34;;;;;;;;;;;6.60;99.90;;;;;;5089104;28;19916;-86
2021/12/19 03:44:59;;;;;;;;;;;6.70;99.90;;;;;;5081540;28;19923;-87
2021/12/19 03:47:25;;;;;;;;;;;6.60;99.90;;;;;;5078891;28;19919;-86
2021/12/19 03:49:51;;;;;;;;;;;6.60;99.90;;;;;;5094842;28;19973;-86
2021/12/19 03:52:16;;;;;;;;;;;6.60;99.90;;;;;;5093989;28;20015;-87
2021/12/19 03:54:42;;;;;;;;;;;6.60;99.90;;;;;;5093530;28;19920;-86
2021/12/19 03:57:08;;;;;;;;;;;6.60;99.90;;;;;;5090628;28;19934;-85
2021/12/19 03:59:33;;;;;;;;;;;6.60;99.90;;;;;;5084360;28;19935;-87
2021/12/19 04:01:59;;;;;;;;;;;6.60;99.90;;;;;;5094292;28;19923;-87
2021/12/19 04:04:24;;;;;;;;;;;6.60;99.90;;;;;;5094473;28;19923;-86
2021/12/19 04:06:50;;;;;;;;;;;6.70;99.90;;;;;;5085353;28;19920;-83
2021/12/19 04:09:15;;;;;;;;;;;6.60;99.90;;;;;;5091002;28;20016;-84
2021/12/19 04:11:41;;;;;;;;;;;6.60;99.90;;;;;;5065913;28;19967;-87
2021/12/19 04:14:07;;;;;;;;;;;6.60;99.90;;;;;;5082317;28;19923;-86
2021/12/19 04:16:32;;;;;;;;;;;6.70;99.90;;;;;;5081786;28;19916;-86
2021/12/19 04:18:58;;;;;;;;;;;6.80;99.90;;;;;;5088676;28;19916;-89
2021/12/19 04:21:24;;;;;;;;;;;6.70;99.90;;;;;;5077456;28;20361;-87
2021/12/19 04:23:49;;;;;;;;;;;6.70;99.90;;;;;;5086683;28;19995;-87
2021/12/19 04:26:15;;;;;;;;;;;6.70;99.90;;;;;;5093133;28;19923;-88
2021/12/19 04:28:41;;;;;;;;;;;6.80;99.90;;;;;;5077666;28;19916;-86
2021/12/19 04:31:07;;;;;;;;;;;6.80;99.90;;;;;;5076182;28;19921;-88
2021/12/19 04:33:34;;;;;;;;;;;6.80;99.90;;;;;;5094273;28;19966;-91
2021/12/19 04:36:03;;;;;;;;;;;6.80;99.90;;;;;;5087390;28;20007;-88
2021/12/19 04:53:20;;;;;;;;;;;6.90;99.90;;;;;;5028807;28;19927;-85
2021/12/19 04:55:46;;;;;;;;;;;6.90;99.90;;;;;;5076672;28;19956;-87
2021/12/19 05:04:08;;;;;;;;;;;6.90;99.90;;;;;;5094385;28;19927;-86
2021/12/19 05:06:14;;;;;;;;;;;7.10;99.90;;;;;;5076155;28;19920;-89
2021/12/19 05:14:13;;;;;;;;;;;7.00;99.90;;;;;;5066737;28;19916;-88
2021/12/19 05:16:42;;;;;;;;;;;7.00;99.90;;;;;;5078409;28;19916;-87
2021/12/19 05:19:21;;;;;;;;;;;7.00;99.90;;;;;;5078676;28;19915;-90
2021/12/19 05:21:47;;;;;;;;;;;7.00;99.90;;;;;;5083048;28;19923;-88
2021/12/19 05:24:21;;;;;;;;;;;7.30;99.90;;;;;;5094122;28;20382;-89
2021/12/19 05:26:47;;;;;;;;;;;7.00;99.90;;;;;;5078946;28;20013;-84
2021/12/19 05:29:13;;;;;;;;;;;7.00;99.90;;;;;;5094663;28;20331;-87
2021/12/19 05:31:39;;;;;;;;;;;7.00;99.90;;;;;;5082645;28;19927;-83
2021/12/19 05:34:06;;;;;;;;;;;7.00;99.90;;;;;;5086974;28;19916;-87
2021/12/19 05:47:24;;;;;;;;;;;6.90;99.90;;;;;;5091407;28;20298;-87
2021/12/19 05:49:49;;;;;;;;;;;6.90;99.90;;;;;;5092951;28;20015;-87
2021/12/19 05:52:15;;;;;;;;;;;6.90;99.90;;;;;;5088800;28;19926;-86
2021/12/19 05:54:40;;;;;;;;;;;6.90;99.90;;;;;;5085960;28;19916;-87
2021/12/19 05:57:06;;;;;;;;;;;6.90;99.90;;;;;;5093069;28;19916;-91
2021/12/19 05:59:32;;;;;;;;;;;6.80;99.90;;;;;;5061186;28;19981;-89
2021/12/19 06:01:58;;;;;;;;;;;6.90;99.90;;;;;;5084047;28;20255;-89
2021/12/19 06:04:23;;;;;;;;;;;6.90;99.90;;;;;;5111150;28;19919;-90
2021/12/19 06:06:51;;;;;;;;;;;7.00;99.90;;;;;;5077728;28;19972;-89
2021/12/19 06:09:16;;;;;;;;;;;6.80;99.90;;;;;;5075859;28;19970;-87
2021/12/19 06:11:42;;;;;;;;;;;6.90;99.90;;;;;;5094926;28;19921;-89
2021/12/19 06:14:08;;;;;;;;;;;6.90;99.90;;;;;;5067165;28;19915;-91
2021/12/19 06:16:33;;;;;;;;;;;6.90;99.90;;;;;;5077253;28;19943;-86
2021/12/19 06:18:59;;;;;;;;;;;6.90;99.90;;;;;;5093039;28;19955;-89
2021/12/19 06:21:25;;;;;;;;;;;6.90;99.90;;;;;;5091517;28;19923;-89
2021/12/19 06:23:51;;;;;;;;;;;6.90;99.90;;;;;;5068004;28;20029;-88
2021/12/19 06:26:16;;;;;;;;;;;6.80;99.90;;;;;;5094334;28;19916;-90
2021/12/19 06:28:42;;;;;;;;;;;6.90;99.90;;;;;;5072235;28;19916;-93
2021/12/19 06:31:08;;;;;;;;;;;6.80;99.90;;;;;;5080152;28;19921;-89
2021/12/19 06:33:33;;;;;;;;;;;7.10;99.90;;;;;;5074770;28;20266;-90
2021/12/19 06:35:59;;;;;;;;;;;6.80;99.90;;;;;;5075292;28;19916;-87
2021/12/19 06:38:25;;;;;;;;;;;7.60;99.90;;;;;;5093696;28;20387;-92
2021/12/19 06:40:50;;;;;;;;;;;7.10;99.90;;;;;;5072964;28;20458;-88
2021/12/19 06:43:16;;;;;;;;;;;6.80;99.90;;;;;;5085307;28;19916;-92
2021/12/19 06:45:41;;;;;;;;;;;6.80;99.90;;;;;;5089871;28;20008;-89
2021/12/19 06:48:07;;;;;;;;;;;6.80;99.90;;;;;;5061075;28;20349;-92
2021/12/19 06:50:33;;;;;;;;;;;6.80;99.90;;;;;;5094062;28;19923;-87
2021/12/19 06:52:58;;;;;;;;;;;6.80;99.90;;;;;;5075461;28;20275;-89
2021/12/19 06:55:24;;;;;;;;;;;6.80;99.90;;;;;;5074425;28;19959;-89
2021/12/19 06:57:49;;;;;;;;;;;6.80;99.90;;;;;;5067273;28;20365;-89
2021/12/19 07:00:17;;;;;;;;;;;6.80;99.90;;;;;;5084493;28;19923;-90
2021/12/19 07:02:43;;;;;;;;;;;6.80;99.90;;;;;;5079229;28;19941;-87
2021/12/19 07:05:09;;;;;;;;;;;6.80;99.90;;;;;;5066205;28;20318;-90
2021/12/19 07:07:35;;;;;;;;;;;6.80;99.90;;;;;;5093507;28;20357;-87
2021/12/19 07:10:00;;;;;;;;;;;6.80;99.90;;;;;;5078020;28;19927;-89
2021/12/19 07:12:26;;;;;;;;;;;6.80;99.90;;;;;;5066669;28;20418;-88
2021/12/19 07:14:55;;;;;;;;;;;6.80;99.90;;;;;;5082706;28;19959;-88
2021/12/19 07:17:21;;;;;;;;;;;6.80;99.90;;;;;;5086463;28;19916;-89
2021/12/19 07:19:48;;;;;;;;;;;6.90;99.90;;;;;;5117399;28;19922;-88
2021/12/19 07:22:14;;;;;;;;;;;6.80;99.90;;;;;;5105409;28;20010;-88
2021/12/19 07:24:41;;;;;;;;;;;6.90;99.90;;;;;;5105290;28;19916;-89
2021/12/19 07:27:06;;;;;;;;;;;6.90;99.90;;;;;;5088278;28;19927;-88
2021/12/19 07:29:32;;;;;;;;;;;6.90;99.90;;;;;;5087162;28;19916;-90
2021/12/19 07:31:58;;;;;;;;;;;6.90;99.90;;;;;;5097487;28;19920;-89
2021/12/19 07:34:30;;;;;;;;;;;6.90;99.90;;;;;;5082284;28;19995;-90
2021/12/19 07:36:57;;;;;;;;;;;6.90;99.90;;;;;;5093114;28;19916;-87
2021/12/19 07:42:01;;;;;;;;;;;7.00;99.90;;;;;;5083059;28;20011;-86
2021/12/19 07:44:26;;;;;;;;;;;6.90;99.90;;;;;;5077141;28;20361;-87
2021/12/19 07:46:52;;;;;;;;;;;6.90;99.90;;;;;;5079092;28;19923;-89
2021/12/19 07:49:17;;;;;;;;;;;6.90;99.90;;;;;;5082690;28;19915;-89
2021/12/19 07:51:43;;;;;;;;;;;7.00;99.90;;;;;;5086720;28;19971;-89
2021/12/19 07:54:09;;;;;;;;;;;6.90;99.90;;;;;;5062832;28;19966;-89
2021/12/19 07:56:35;;;;;;;;;;;6.90;99.90;;;;;;5084179;28;19920;-91
2021/12/19 07:59:00;;;;;;;;;;;6.90;99.90;;;;;;5095002;28;19916;-86
2021/12/19 08:01:26;;;;;;;;;;;7.00;99.90;;;;;;5061424;28;19916;-90
2021/12/19 08:03:52;;;;;;;;;;;6.90;99.90;;;;;;5094172;28;19919;-90
2021/12/19 08:06:17;;;;;;;;;;;7.00;99.90;;;;;;5065923;28;20285;-87
2021/12/19 08:08:49;;;;;;;;;;;7.00;99.90;;;;;;5062166;28;19916;-87
2021/12/19 08:13:59;;;;;;;;;;;7.00;99.90;;;;;;5101455;28;20401;-89
2021/12/19 08:16:25;;;;;;;;;;;7.00;99.90;;;;;;5081912;28;19920;-89
2021/12/19 08:18:52;;;;;;;;;;;7.00;99.90;;;;;;5095323;28;19975;-90
2021/12/19 08:21:18;;;;;;;;;;;7.00;99.90;;;;;;5096760;28;19924;-88
2021/12/19 08:23:44;;;;;;;;;;;7.00;99.90;;;;;;5090314;28;20353;-90
2021/12/19 08:26:10;;;;;;;;;;;7.00;99.90;;;;;;5087191;28;19916;-87
2021/12/19 08:28:35;;;;;;;;;;;7.10;99.90;;;;;;5075176;28;19922;-89
2021/12/19 08:31:01;;;;;;;;;;;7.10;99.90;;;;;;5101144;28;19920;-87
2021/12/19 08:33:27;;;;;;;;;;;7.30;99.90;;;;;;5091937;28;19962;-87
2021/12/19 08:35:52;;;;;;;;;;;7.00;99.90;;;;;;5099004;28;19983;-86
2021/12/19 08:38:19;;;;;;;;;;;7.00;99.90;;;;;;5103654;28;19924;-88
2021/12/19 08:40:47;;;;;;;;;;;7.10;99.90;;;;;;5097049;28;19989;-87
2021/12/19 08:43:13;;;;;;;;;;;7.10;99.90;;;;;;5080322;28;19920;-87
2021/12/19 08:45:39;;;;;;;;;;;7.10;99.90;;;;;;5097360;28;20028;-88
2021/12/19 08:48:05;;;;;;;;;;;7.10;99.90;;;;;;5070170;28;19920;-91
2021/12/19 08:50:31;;;;;;;;;;;7.10;99.90;;;;;;5089529;28;19916;-92
2021/12/19 08:52:56;;;;;;;;;;;7.30;99.90;;;;;;5096747;28;19981;-87
2021/12/19 08:55:22;;;;;;;;;;;7.10;99.90;;;;;;5096507;28;19927;-89
2021/12/19 08:57:48;;;;;;;;;;;7.10;99.90;;;;;;5093269;28;19916;-86
2021/12/19 09:00:14;;;;;;;;;;;7.10;99.90;;;;;;5090253;28;20142;-88
2021/12/19 09:02:43;;;;;;;;;;;7.10;99.90;;;;;;5092913;28;19963;-85
2021/12/19 09:05:09;;;;;;;;;;;7.10;99.90;;;;;;5073562;28;20049;-90
2021/12/19 09:07:34;;;;;;;;;;;7.20;99.90;;;;;;5091018;28;19920;-89
2021/12/19 09:10:00;;;;;;;;;;;7.20;99.90;;;;;;5097672;28;19926;-88
2021/12/19 09:12:27;;;;;;;;;;;7.20;99.90;;;;;;5072985;28;19920;-89
2021/12/19 09:14:53;;;;;;;;;;;7.20;99.90;;;;;;5094453;28;19916;-91
2021/12/19 09:17:19;;;;;;;;;;;7.30;99.90;;;;;;5086783;28;19916;-89
2021/12/19 09:19:44;;;;;;;;;;;7.30;99.90;;;;;;5067597;28;19920;-90
2021/12/19 09:22:10;;;;;;;;;;;7.30;99.90;;;;;;5082052;28;20041;-87
2021/12/19 09:24:35;;;;;;;;;;;7.40;99.90;;;;;;5072853;28;19916;-87
2021/12/19 09:27:03;;;;;;;;;;;7.50;99.90;;;;;;5072762;28;19916;-89
2021/12/19 09:29:29;;;;;;;;;;;7.30;99.90;;;;;;5085555;28;19915;-90
2021/12/19 09:31:55;;;;;;;;;;;7.30;99.90;;;;;;5080846;28;19924;-90
2021/12/19 09:34:21;;;;;;;;;;;7.30;99.90;;;;;;5096220;28;20003;-88
2021/12/19 09:36:47;;;;;;;;;;;7.30;99.90;;;;;;5095360;28;20273;-89
2021/12/19 09:39:13;;;;;;;;;;;7.30;99.90;;;;;;5073552;28;19920;-89
2021/12/19 09:41:44;;;;;;;;;;;7.30;99.90;;;;;;5066971;28;19916;-90
2021/12/19 09:44:11;;;;;;;;;;;7.30;99.90;;;;;;5062273;28;19977;-87
2021/12/19 09:46:38;;;;;;;;;;;7.40;99.90;;;;;;5068348;28;19938;-90
2021/12/19 09:49:04;;;;;;;;;;;7.40;99.90;;;;;;5089782;28;19916;-86
2021/12/19 09:51:30;;;;;;;;;;;7.40;99.90;;;;;;5089933;28;19920;-85
2021/12/19 09:53:55;;;;;;;;;;;7.40;99.90;;;;;;5094153;28;20011;-86
2021/12/19 09:56:21;;;;;;;;;;;7.40;99.90;;;;;;5087320;28;19924;-87
2021/12/19 09:58:48;;;;;;;;;;;7.40;99.90;;;;;;5087453;28;19923;-85
2021/12/19 10:01:14;;;;;;;;;;;7.40;99.90;;;;;;5087555;28;19923;-84
2021/12/19 10:03:40;;;;;;;;;;;7.40;99.90;;;;;;5071482;28;20369;-86
2021/12/19 10:06:16;;;;;;;;;;;7.40;99.90;;;;;;5083391;28;19924;-89
2021/12/19 10:08:41;;;;;;;;;;;7.40;99.90;;;;;;5093570;28;20289;-86
2021/12/19 10:11:30;;;;;;;;;;;7.40;99.90;;;;;;5072388;28;19927;-87
2021/12/19 10:13:56;;;;;;;;;;;7.40;99.90;;;;;;5086057;28;19917;-85
2021/12/19 10:16:24;;;;;;;;;;;7.50;99.90;;;;;;5056928;28;20223;-87
2021/12/19 10:18:50;;;;;;;;;;;7.40;99.90;;;;;;5087150;28;19923;-88
2021/12/19 10:21:17;;;;;;;;;;;7.40;99.90;;;;;;5088594;28;20262;-87
2021/12/19 10:23:43;;;;;;;;;;;7.40;99.90;;;;;;5076937;28;19959;-86
2021/12/19 10:26:09;;;;;;;;;;;7.50;99.90;;;;;;5095348;28;19916;-86
2021/12/19 10:28:52;;;;;;;;;;;7.50;99.90;;;;;;5092791;28;20318;-88
2021/12/19 10:31:18;;;;;;;;;;;7.50;99.90;;;;;;5082884;28;19973;-86
2021/12/19 10:33:44;;;;;;;;;;;7.50;99.90;;;;;;5077993;28;19920;-90
2021/12/19 10:36:10;;;;;;;;;;;7.50;99.90;;;;;;5075190;28;19916;-87
2021/12/19 10:38:43;;;;;;;;;;;7.60;99.90;;;;;;5084261;28;19970;-84
2021/12/19 10:41:08;;;;;;;;;;;7.60;99.90;;;;;;5073934;28;19998;-86
2021/12/19 10:43:40;;;;;;;;;;;7.60;99.90;;;;;;5091293;28;20397;-92
2021/12/19 10:46:09;;;;;;;;;;;7.70;99.90;;;;;;5070026;28;19963;-89
2021/12/19 10:48:39;;;;;;;;;;;7.70;99.90;;;;;;5077857;28;19920;-87
2021/12/19 10:51:06;;;;;;;;;;;7.70;99.90;;;;;;5092039;28;19981;-88
2021/12/19 10:53:37;;;;;;;;;;;7.80;99.90;;;;;;5090808;28;19920;-87
2021/12/19 10:56:05;;;;;;;;;;;7.80;99.90;;;;;;5073489;28;19923;-80
2021/12/19 10:58:33;;;;;;;;;;;7.80;99.90;;;;;;5071900;28;19916;-82
2021/12/19 11:01:03;;;;;;;;;;;;;;;;;;5076073;28;19999;-83
2021/12/19 11:03:42;;;;;;;1.40;0.98;;;7.80;99.90;;;;;;5126377;27;20463;-84
2021/12/19 11:06:42;;;;;;;2.95;1.70;;;7.80;99.90;;;;;;5049303;28;20041;-80
2021/12/19 11:09:12;;;;;;;14.07;2.03;;;7.80;99.90;;;;;;5094175;28;20052;-79
2021/12/19 11:12:00;;;;;;;7.90;1.65;;;7.80;99.90;;;;;;5080387;28;20478;-80
2021/12/19 11:14:28;;;;;;;4.05;2.00;;;7.90;99.90;;;;;;5090018;28;20045;-80
2021/12/19 11:17:20;;;;;;;2.95;1.63;;;7.90;99.90;;;;;;5066586;28;20056;-81
2021/12/19 11:19:48;;;;;;;1.83;1.52;;;7.80;99.90;;;;;;5061981;28;20052;-82
2021/12/19 11:22:23;;;;;;;1.90;0.95;;;7.90;99.90;;;;;;5066475;28;20142;-81
2021/12/19 11:24:50;;;;;;;3.13;0.95;;;7.90;99.90;;;;;;5067243;28;20044;-80
2021/12/19 11:27:16;;;;;;;1.13;1.00;;;7.90;99.90;;;;;;5063484;28;20095;-83
2021/12/19 11:29:44;;;;;;;1.95;1.23;;;7.90;99.90;;;;;;5096604;28;20079;-84
2021/12/19 11:32:19;;;;;;;5.63;1.70;;;7.90;99.90;;;;;;5049112;28;20110;-89
2021/12/19 11:35:00;;;;;;;2.10;1.92;;;7.90;99.90;;;;;;5068058;28;20482;-87
2021/12/19 11:37:31;;;;;;;2.70;1.58;;;8.00;99.90;;;;;;5057284;28;20045;-86
2021/12/19 11:39:57;;;;;;;3.70;2.10;;;7.90;99.90;;;;;;5067017;28;20159;-82
2021/12/19 11:42:35;;;;;;;1.80;1.63;;;8.60;99.90;;;;;;5058825;28;20540;-82
2021/12/19 11:45:25;;;;;;;11.32;1.60;;;8.00;99.90;;;;;;5063229;28;20110;-82
2021/12/19 11:47:57;;;;;;;3.58;1.67;;;7.90;99.90;;;;;;5100723;28;20056;-82
2021/12/19 11:50:30;;;;;;;3.05;1.60;;;8.00;99.90;;;;;;5079770;28;20051;-79
2021/12/19 11:53:07;;;;;;;3.60;1.77;;;8.00;99.90;;;;;;5066355;28;20080;-80
2021/12/19 11:55:45;;;;;;;5.75;1.92;;;8.00;99.90;;;;;;5039131;28;20135;-81
2021/12/19 11:58:23;;;;;;;9.25;1.45;;;8.10;99.90;;;;;;5066380;28;20398;-82
2021/12/19 12:00:55;;;;;;;3.03;1.73;;;8.00;99.90;;;;;;5065248;28;20072;-81
2021/12/19 12:03:26;;;;;;;4.55;1.15;;;8.10;99.90;;;;;;5065161;28;20067;-81
2021/12/19 12:05:53;;;;;;;8.00;2.47;;;8.10;99.90;;;;;;5056729;28;20045;-83
2021/12/19 12:08:20;;;;;;;1.05;1.00;;;8.10;99.90;;;;;;5052412;28;20158;-84
2021/12/19 12:10:53;;;;;;;4.65;2.65;;;8.10;99.90;;;;;;5053028;28;20087;-84
2021/12/19 12:13:25;;;;;;;0.90;0.90;;;8.10;99.90;;;;;;5059057;28;20095;-90
2021/12/19 12:15:53;;;;;;;1.58;1.48;;;8.10;99.90;;;;;;5089137;28;20124;-78
2021/12/19 12:18:58;;;;;;;4.18;2.40;;;8.10;99.90;;;;;;5050286;28;20075;-80
2021/12/19 12:21:34;;;;;;;11.02;1.83;;;8.10;99.90;;;;;;5034583;28;20052;-82
2021/12/19 12:24:04;;;;;;;10.48;2.20;;;8.10;99.90;;;;;;5049723;28;20052;-80
2021/12/19 12:26:39;;;;;;;1.55;1.05;;;8.10;99.90;;;;;;5081791;28;20345;-77
2021/12/19 12:29:06;;;;;;;8.90;2.60;;;8.10;99.90;;;;;;5051299;28;20060;-82
2021/12/19 12:31:34;;;;;;;3.97;1.63;;;8.10;99.90;;;;;;5051363;28;20094;-78
2021/12/19 12:34:02;;;;;;;4.85;1.83;;;8.00;99.90;;;;;;5043939;28;20059;-86
2021/12/19 12:36:28;;;;;;;6.72;1.77;;;8.00;99.90;;;;;;5029776;28;20069;-87
2021/12/19 12:38:55;;;;;;;2.42;1.25;;;8.00;99.90;;;;;;5042036;28;20041;-81
2021/12/19 12:41:39;;;;;;;8.05;1.90;;;7.90;99.90;;;;;;5049627;28;20045;-83
2021/12/19 12:44:17;;;;;;;6.60;1.40;;;7.90;99.90;;;;;;5047683;28;20045;-81
2021/12/19 12:46:44;;;;;;;6.88;1.55;;;7.90;99.90;;;;;;5052553;28;20084;-79
2021/12/19 12:49:24;;;;;;;4.10;1.15;;;7.90;99.90;;;;;;5026593;28;20050;-81
2021/12/19 12:51:56;;;;;;;1.73;1.15;;;7.90;99.90;;;;;;5045902;28;20529;-85
2021/12/19 12:54:30;;;;;;;1.48;1.38;;;7.90;99.90;;;;;;5048157;28;20057;-82
2021/12/19 12:56:59;;;;;;;3.13;1.27;;;7.90;99.90;;;;;;5080306;28;20037;-83
2021/12/19 12:59:31;;;;;;;1.70;1.45;;;7.90;99.90;;;;;;5045730;28;20040;-80
2021/12/19 13:02:30;;;;;;;1.63;1.42;;;7.90;99.90;;;;;;5037533;28;20060;-84
2021/12/19 13:04:52;;;;;;;7.72;2.25;;;7.90;99.90;;;;;;5048323;28;20052;-79
2021/12/19 13:07:20;;;;;;;1.55;0.90;;;7.90;99.90;;;;;;5048213;28;20033;-81
2021/12/19 13:09:51;;;;;;;1.33;1.23;;;7.90;99.90;;;;;;5055575;28;20032;-84
2021/12/19 13:12:25;;;;;;;12.23;1.10;;;7.80;99.90;;;;;;5052364;28;20105;-84
2021/12/19 13:14:56;;;;;;;1.85;1.42;;;7.80;99.90;;;;;;5039970;28;20064;-79
2021/12/19 13:17:23;;;;;;;6.82;1.40;;;7.80;99.90;;;;;;5056611;28;20047;-84
2021/12/19 13:19:59;;;;;;;7.38;1.75;;;7.80;99.90;;;;;;5052855;28;20048;-81
2021/12/19 13:22:47;;;;;;;1.58;1.23;;;7.80;99.90;;;;;;5031026;28;20519;-82
2021/12/19 13:25:22;;;;;;;8.07;2.25;;;7.90;99.90;;;;;;5086457;28;20056;-83
2021/12/19 13:27:55;;;;;;;1.27;1.13;;;7.90;99.90;;;;;;5054269;28;20052;-83
2021/12/19 13:30:31;;;;;;;12.48;1.48;;;7.90;99.90;;;;;;5045029;28;20045;-81
2021/12/19 13:33:14;;;;;;;10.97;1.83;;;8.00;99.90;;;;;;5052297;28;20511;-82
2021/12/19 13:35:56;;;;;;;2.25;1.10;;;8.10;99.90;;;;;;5042036;28;20060;-81
2021/12/19 13:38:24;;;;;;;8.13;1.75;;;8.10;99.90;;;;;;5050217;28;20037;-82
2021/12/19 13:41:10;;;;;;;3.53;1.75;;;8.10;99.90;;;;;;5061534;28;20045;-81
2021/12/19 13:43:38;;;;;;;3.15;1.23;;;8.10;99.90;;;;;;5034665;28;20049;-82
2021/12/19 13:46:10;;;;;;;4.43;1.23;;;8.10;99.90;;;;;;5048254;28;20045;-81
2021/12/19 13:48:51;;;;;;;9.38;2.13;;;8.10;99.90;;;;;;5028193;28;20415;-80
2021/12/19 13:51:29;;;;;;;3.13;1.33;;;8.20;99.90;;;;;;5052704;28;20390;-82
2021/12/19 13:53:57;;;;;;;8.30;1.88;;;8.10;99.90;;;;;;5049593;28;20060;-83
2021/12/19 13:56:29;;;;;;;1.48;1.20;;;8.10;99.90;;;;;;5034230;28;20041;-82
2021/12/19 13:58:59;;;;;;;0.70;0.70;;;8.10;99.90;;;;;;5050661;28;20045;-81
2021/12/19 14:01:33;;;;;;;0.73;0.73;;;8.10;99.90;;;;;;5049105;28;20059;-80
2021/12/19 14:04:01;;;;;;;0.80;0.80;;;8.00;99.90;;;;;;5049107;28;20083;-81
2021/12/19 14:06:36;;;;;;;1.02;0.77;;;8.10;99.90;;;;;;5050456;28;20045;-84
2021/12/19 14:09:06;;;;;;;1.00;0.90;;;8.00;99.90;;;;;;5047352;28;20112;-84
2021/12/19 14:11:34;;;;;;;1.35;1.02;;;8.00;99.90;;;;;;5042581;28;20098;-86
2021/12/19 14:14:13;;;;;;;4.22;1.20;;;8.00;99.90;;;;;;5027501;28;20037;-83
2021/12/19 14:16:43;;;;;;;3.72;1.10;;;7.90;99.90;;;;;;5051468;28;20041;-80
2021/12/19 14:19:31;;;;;;;0.77;0.77;;;7.90;99.90;;;;;;5051147;28;20467;-82
2021/12/19 14:21:59;;;;;;;;;;;7.90;99.90;;;;;;5047612;28;20044;-85
2021/12/19 14:24:32;;;;;;;1.40;0.80;;;7.90;99.90;;;;;;5050514;28;19921;-81
2021/12/19 14:27:29;;;;;;;0.65;0.65;;;7.80;99.90;;;;;;5041758;28;20174;-79
2021/12/19 14:29:54;;;;;;;2.00;1.20;;;7.80;99.90;;;;;;5045865;28;20048;-82
2021/12/19 14:32:34;;;;;;;0.65;0.65;;;7.70;99.90;;;;;;5043131;28;20040;-82
2021/12/19 14:35:00;;;;;;;4.10;1.20;;;7.70;99.90;;;;;;5056579;28;20052;-78
2021/12/19 14:37:38;;;;;;;1.08;1.02;;;7.70;99.90;;;;;;5049391;28;20075;-82
2021/12/19 14:40:04;;;;;;;2.65;1.02;;;7.60;99.90;;;;;;5072259;28;20114;-81
2021/12/19 14:42:36;;;;;;;2.67;1.17;;;7.60;99.90;;;;;;5043569;28;20053;-81
2021/12/19 14:45:15;;;;;;;1.38;1.27;;;7.60;99.90;;;;;;5039008;28;20051;-81
2021/12/19 14:47:48;;;;;;;0.82;0.82;;;7.60;99.90;;;;;;5046755;28;20045;-82
2021/12/19 14:50:21;;;;;;;1.00;0.90;;;7.50;99.90;;;;;;5048995;28;20060;-81
2021/12/19 14:52:57;;;;;;;1.08;0.95;;;7.50;99.90;;;;;;5035110;28;20607;-80
2021/12/19 14:55:26;;;;;;;4.57;1.30;;;7.40;99.90;;;;;;5032999;28;20060;-84
2021/12/19 14:57:52;;;;;;;4.25;1.23;;;7.50;99.90;;;;;;5047268;28;20186;-83
2021/12/19 15:00:18;;;;;;;0.70;0.70;;;7.40;99.90;;;;;;5049247;28;20071;-79
2021/12/19 15:02:43;;;;;;;0.70;0.70;;;7.40;99.90;;;;;;5068918;28;20064;-83
2021/12/19 15:05:11;;;;;;;1.77;1.40;;;7.40;99.90;;;;;;5029850;28;20079;-82
2021/12/19 15:07:44;;;;;;;0.98;0.98;;;7.40;99.90;;;;;;5020136;28;20065;-80
2021/12/19 15:10:16;;;;;;;1.35;0.95;;;7.40;99.90;;;;;;5045862;28;20149;-81
2021/12/19 15:12:43;;;;;;;0.93;0.93;;;7.40;99.90;;;;;;5031322;28;20053;-82
2021/12/19 15:15:10;;;;;;;0.80;0.80;;;7.40;99.90;;;;;;5049707;28;20053;-80
2021/12/19 15:17:36;;;;;;;0.85;0.85;;;7.40;99.90;;;;;;5049933;28;20040;-82
2021/12/19 15:20:02;;;;;;;1.10;0.95;;;7.50;99.90;;;;;;5014865;28;20486;-81